sensor_id;sensor_type;location;lat;lon;timestamp;pressure;altitude;pressure_sealevel;temperature;humidity
3464;BME280;3551;41.578;24.706;2023-04-22T00:02:09;90892.63;;;10.55;100.00
3464;BME280;3551;41.578;24.706;2023-04-22T00:04:38;90903.78;;;10.47;100.00
3464;BME280;3551;41.578;24.706;2023-04-22T00:07:07;90899.34;;;10.33;100.00
3464;BME280;3551;41.578;24.706;2023-04-22T00:09:33;90898.53;;;10.36;100.00
3464;BME280;3551;41.578;24.706;2023-04-22T00:12:00;90898.97;;;10.31;100.00
3464;BME280;3551;41.578;24.706;2023-04-22T00:14:27;90898.63;;;10.26;100.00
3464;BME280;3551;41.578;24.706;2023-04-22T00:16:54;90892.13;;;10.30;100.00
3464;BME280;3551;41.578;24.706;2023-04-22T00:19:21;90901.28;;;10.29;100.00
3464;BME280;3551;41.578;24.706;2023-04-22T00:21:48;90900.50;;;10.32;100.00
3464;BME280;3551;41.578;24.706;2023-04-22T00:24:16;90898.59;;;10.33;100.00
3464;BME280;3551;41.578;24.706;2023-04-22T00:26:43;90899.38;;;10.30;100.00
3464;BME280;3551;41.578;24.706;2023-04-22T00:29:09;90905.44;;;10.34;100.00
3464;BME280;3551;41.578;24.706;2023-04-22T00:31:36;90899.69;;;10.35;100.00
3464;BME280;3551;41.578;24.706;2023-04-22T00:34:03;90900.66;;;10.14;100.00
3464;BME280;3551;41.578;24.706;2023-04-22T00:36:29;90895.22;;;10.22;100.00
3464;BME280;3551;41.578;24.706;2023-04-22T00:38:56;90892.78;;;9.93;100.00
3464;BME280;3551;41.578;24.706;2023-04-22T00:41:24;90893.38;;;9.63;100.00
3464;BME280;3551;41.578;24.706;2023-04-22T00:43:52;90899.38;;;9.78;100.00
3464;BME280;3551;41.578;24.706;2023-04-22T00:46:19;90889.63;;;10.05;100.00
3464;BME280;3551;41.578;24.706;2023-04-22T00:48:46;90889.19;;;10.14;100.00
3464;BME280;3551;41.578;24.706;2023-04-22T00:51:12;90881.25;;;10.03;100.00
3464;BME280;3551;41.578;24.706;2023-04-22T00:53:39;90887.63;;;9.69;100.00
3464;BME280;3551;41.578;24.706;2023-04-22T00:56:06;90896.56;;;9.41;100.00
3464;BME280;3551;41.578;24.706;2023-04-22T00:58:34;90894.22;;;9.50;100.00
3464;BME280;3551;41.578;24.706;2023-04-22T01:01:01;90888.34;;;9.73;100.00
3464;BME280;3551;41.578;24.706;2023-04-22T01:03:28;90877.69;;;9.69;100.00
3464;BME280;3551;41.578;24.706;2023-04-22T01:05:55;90872.28;;;9.25;100.00
3464;BME280;3551;41.578;24.706;2023-04-22T01:08:23;90873.88;;;9.08;100.00
3464;BME280;3551;41.578;24.706;2023-04-22T01:10:53;90886.59;;;9.52;100.00
3464;BME280;3551;41.578;24.706;2023-04-22T01:13:20;90891.78;;;9.73;100.00
3464;BME280;3551;41.578;24.706;2023-04-22T01:15:48;90899.31;;;9.85;100.00
3464;BME280;3551;41.578;24.706;2023-04-22T01:18:15;90897.59;;;9.61;100.00
3464;BME280;3551;41.578;24.706;2023-04-22T01:20:42;90892.91;;;9.76;100.00
3464;BME280;3551;41.578;24.706;2023-04-22T01:23:13;90890.53;;;9.88;100.00
3464;BME280;3551;41.578;24.706;2023-04-22T01:25:42;90893.50;;;10.01;100.00
3464;BME280;3551;41.578;24.706;2023-04-22T01:28:09;90898.13;;;9.93;100.00
3464;BME280;3551;41.578;24.706;2023-04-22T01:30:35;90897.00;;;9.87;100.00
3464;BME280;3551;41.578;24.706;2023-04-22T01:33:02;90887.88;;;9.85;100.00
3464;BME280;3551;41.578;24.706;2023-04-22T01:35:29;90889.00;;;9.87;100.00
3464;BME280;3551;41.578;24.706;2023-04-22T01:38:01;90892.72;;;10.00;100.00
3464;BME280;3551;41.578;24.706;2023-04-22T01:40:29;90891.19;;;9.99;100.00
3464;BME280;3551;41.578;24.706;2023-04-22T01:42:56;90887.44;;;9.93;100.00
3464;BME280;3551;41.578;24.706;2023-04-22T01:45:23;90890.88;;;9.90;100.00
3464;BME280;3551;41.578;24.706;2023-04-22T01:47:50;90892.72;;;10.00;100.00
3464;BME280;3551;41.578;24.706;2023-04-22T01:50:17;90890.47;;;9.95;100.00
3464;BME280;3551;41.578;24.706;2023-04-22T01:52:43;90892.66;;;10.07;100.00
3464;BME280;3551;41.578;24.706;2023-04-22T01:55:10;90899.53;;;10.05;100.00
3464;BME280;3551;41.578;24.706;2023-04-22T01:57:38;90898.53;;;9.88;100.00
3464;BME280;3551;41.578;24.706;2023-04-22T02:00:06;90899.34;;;9.82;100.00
3464;BME280;3551;41.578;24.706;2023-04-22T02:02:33;90893.13;;;9.95;100.00
3464;BME280;3551;41.578;24.706;2023-04-22T02:05:00;90890.91;;;9.87;100.00
3464;BME280;3551;41.578;24.706;2023-04-22T02:07:26;90892.88;;;9.83;100.00
3464;BME280;3551;41.578;24.706;2023-04-22T02:09:53;90896.16;;;10.01;100.00
3464;BME280;3551;41.578;24.706;2023-04-22T02:12:20;90893.50;;;9.97;100.00
3464;BME280;3551;41.578;24.706;2023-04-22T02:14:48;90898.47;;;9.95;100.00
3464;BME280;3551;41.578;24.706;2023-04-22T02:17:14;90887.97;;;9.74;100.00
3464;BME280;3551;41.578;24.706;2023-04-22T02:19:42;90886.81;;;9.75;100.00
3464;BME280;3551;41.578;24.706;2023-04-22T02:22:09;90886.41;;;9.77;100.00
3464;BME280;3551;41.578;24.706;2023-04-22T02:24:35;90885.31;;;9.74;100.00
3464;BME280;3551;41.578;24.706;2023-04-22T02:27:02;90885.63;;;9.83;100.00
3464;BME280;3551;41.578;24.706;2023-04-22T02:29:30;90890.16;;;9.86;100.00
3464;BME280;3551;41.578;24.706;2023-04-22T02:31:58;90893.22;;;9.85;100.00
3464;BME280;3551;41.578;24.706;2023-04-22T02:34:25;90897.81;;;9.84;100.00
3464;BME280;3551;41.578;24.706;2023-04-22T02:36:52;90892.00;;;9.93;100.00
3464;BME280;3551;41.578;24.706;2023-04-22T02:39:18;90900.94;;;9.72;100.00
3464;BME280;3551;41.578;24.706;2023-04-22T02:41:45;90904.69;;;9.82;100.00
3464;BME280;3551;41.578;24.706;2023-04-22T02:44:12;90909.38;;;9.67;100.00
3464;BME280;3551;41.578;24.706;2023-04-22T02:46:38;90905.91;;;9.70;100.00
3464;BME280;3551;41.578;24.706;2023-04-22T02:49:06;90909.34;;;9.71;100.00
3464;BME280;3551;41.578;24.706;2023-04-22T02:51:33;90894.47;;;9.70;100.00
3464;BME280;3551;41.578;24.706;2023-04-22T02:54:00;90903.00;;;9.50;100.00
3464;BME280;3551;41.578;24.706;2023-04-22T02:56:26;90901.41;;;9.60;100.00
3464;BME280;3551;41.578;24.706;2023-04-22T02:58:53;90903.00;;;9.50;100.00
3464;BME280;3551;41.578;24.706;2023-04-22T03:01:20;90896.47;;;9.58;100.00
3464;BME280;3551;41.578;24.706;2023-04-22T03:03:47;90895.31;;;9.59;100.00
3464;BME280;3551;41.578;24.706;2023-04-22T03:06:15;90893.34;;;9.67;100.00
3464;BME280;3551;41.578;24.706;2023-04-22T03:08:43;90897.94;;;9.67;100.00
3464;BME280;3551;41.578;24.706;2023-04-22T03:11:09;90901.00;;;9.65;100.00
3464;BME280;3551;41.578;24.706;2023-04-22T03:13:38;90900.94;;;9.72;100.00
3464;BME280;3551;41.578;24.706;2023-04-22T03:16:05;90899.91;;;9.55;100.00
3464;BME280;3551;41.578;24.706;2023-04-22T03:18:31;90895.69;;;9.58;100.00
3464;BME280;3551;41.578;24.706;2023-04-22T03:20:58;90898.34;;;9.61;100.00
3464;BME280;3551;41.578;24.706;2023-04-22T03:23:27;90900.66;;;9.59;100.00
3464;BME280;3551;41.578;24.706;2023-04-22T03:25:53;90900.66;;;9.56;100.00
3464;BME280;3551;41.578;24.706;2023-04-22T03:28:20;90900.38;;;9.43;100.00
3464;BME280;3551;41.578;24.706;2023-04-22T03:30:47;90895.44;;;9.42;100.00
3464;BME280;3551;41.578;24.706;2023-04-22T03:33:13;90904.97;;;9.39;100.00
3464;BME280;3551;41.578;24.706;2023-04-22T03:35:40;90900.41;;;9.36;100.00
3464;BME280;3551;41.578;24.706;2023-04-22T03:38:07;90914.91;;;9.35;100.00
3464;BME280;3551;41.578;24.706;2023-04-22T03:40:35;90904.28;;;9.25;100.00
3464;BME280;3551;41.578;24.706;2023-04-22T03:43:02;90903.13;;;9.26;100.00
3464;BME280;3551;41.578;24.706;2023-04-22T03:45:29;90914.63;;;9.19;100.00
3464;BME280;3551;41.578;24.706;2023-04-22T03:47:55;90909.66;;;9.21;100.00
3464;BME280;3551;41.578;24.706;2023-04-22T03:50:22;90909.66;;;9.18;100.00
3464;BME280;3551;41.578;24.706;2023-04-22T03:52:48;90916.47;;;9.29;100.00
3464;BME280;3551;41.578;24.706;2023-04-22T03:55:15;90909.28;;;9.16;100.00
3464;BME280;3551;41.578;24.706;2023-04-22T03:57:43;90913.09;;;9.15;100.00
3464;BME280;3551;41.578;24.706;2023-04-22T04:00:10;90908.91;;;9.14;100.00
3464;BME280;3551;41.578;24.706;2023-04-22T04:02:37;90907.50;;;8.91;100.00
3464;BME280;3551;41.578;24.706;2023-04-22T04:05:04;90915.41;;;9.09;100.00
3464;BME280;3551;41.578;24.706;2023-04-22T04:07:31;90921.44;;;9.20;100.00
3464;BME280;3551;41.578;24.706;2023-04-22T04:09:58;90926.38;;;9.25;100.00
3464;BME280;3551;41.578;24.706;2023-04-22T04:12:25;90924.53;;;9.19;100.00
3464;BME280;3551;41.578;24.706;2023-04-22T04:14:53;90917.31;;;9.09;100.00
3464;BME280;3551;41.578;24.706;2023-04-22T04:17:19;90918.44;;;9.18;100.00
3464;BME280;3551;41.578;24.706;2023-04-22T04:19:50;90923.75;;;9.22;100.00
3464;BME280;3551;41.578;24.706;2023-04-22T04:22:16;90925.31;;;9.05;100.00
3464;BME280;3551;41.578;24.706;2023-04-22T04:24:43;90933.31;;;9.12;100.00
3464;BME280;3551;41.578;24.706;2023-04-22T04:27:11;90930.16;;;9.31;100.00
3464;BME280;3551;41.578;24.706;2023-04-22T04:29:38;90933.81;;;9.66;100.00
3464;BME280;3551;41.578;24.706;2023-04-22T04:32:07;90933.47;;;10.15;100.00
3464;BME280;3551;41.578;24.706;2023-04-22T04:34:34;90946.00;;;10.66;100.00
3464;BME280;3551;41.578;24.706;2023-04-22T04:37:02;90939.81;;;11.06;100.00
3464;BME280;3551;41.578;24.706;2023-04-22T04:39:28;90939.34;;;10.81;100.00
3464;BME280;3551;41.578;24.706;2023-04-22T04:41:55;90939.47;;;11.65;100.00
3464;BME280;3551;41.578;24.706;2023-04-22T04:44:22;90945.69;;;11.89;100.00
3464;BME280;3551;41.578;24.706;2023-04-22T04:46:50;90948.63;;;11.98;100.00
3464;BME280;3551;41.578;24.706;2023-04-22T04:49:20;90945.03;;;11.81;100.00
3464;BME280;3551;41.578;24.706;2023-04-22T04:51:47;90948.19;;;11.42;100.00
3464;BME280;3551;41.578;24.706;2023-04-22T04:54:13;90946.75;;;11.38;100.00
3464;BME280;3551;41.578;24.706;2023-04-22T04:56:40;90942.03;;;10.81;100.00
3464;BME280;3551;41.578;24.706;2023-04-22T04:59:06;90943.53;;;10.45;100.00
3464;BME280;3551;41.578;24.706;2023-04-22T05:01:33;90943.47;;;10.48;100.00
3464;BME280;3551;41.578;24.706;2023-04-22T05:04:00;90939.09;;;10.68;100.00
3464;BME280;3551;41.578;24.706;2023-04-22T05:06:28;90947.22;;;11.29;100.00
3464;BME280;3551;41.578;24.706;2023-04-22T05:08:55;90944.50;;;11.63;100.00
3464;BME280;3551;41.578;24.706;2023-04-22T05:11:22;90936.78;;;12.22;100.00
3464;BME280;3551;41.578;24.706;2023-04-22T05:13:48;90943.44;;;12.60;100.00
3464;BME280;3551;41.578;24.706;2023-04-22T05:16:15;90944.72;;;12.75;100.00
3464;BME280;3551;41.578;24.706;2023-04-22T05:18:42;90936.81;;;13.11;100.00
3464;BME280;3551;41.578;24.706;2023-04-22T05:21:08;90933.69;;;13.72;100.00
3464;BME280;3551;41.578;24.706;2023-04-22T05:23:36;90927.84;;;13.93;100.00
3464;BME280;3551;41.578;24.706;2023-04-22T05:26:03;90929.03;;;13.92;100.00
3464;BME280;3551;41.578;24.706;2023-04-22T05:28:30;90935.91;;;13.93;100.00
3464;BME280;3551;41.578;24.706;2023-04-22T05:30:56;90931.94;;;13.81;100.00
3464;BME280;3551;41.578;24.706;2023-04-22T05:33:23;90945.31;;;14.01;100.00
3464;BME280;3551;41.578;24.706;2023-04-22T05:35:50;90945.59;;;14.23;100.00
3464;BME280;3551;41.578;24.706;2023-04-22T05:38:16;90936.91;;;14.51;100.00
3464;BME280;3551;41.578;24.706;2023-04-22T05:40:44;90932.84;;;14.91;96.23
3464;BME280;3551;41.578;24.706;2023-04-22T05:43:11;90937.56;;;14.87;96.22
3464;BME280;3551;41.578;24.706;2023-04-22T05:45:38;90932.00;;;14.94;99.02
3464;BME280;3551;41.578;24.706;2023-04-22T05:48:04;90936.47;;;14.85;98.98
3464;BME280;3551;41.578;24.706;2023-04-22T05:50:31;90938.06;;;14.82;94.29
3464;BME280;3551;41.578;24.706;2023-04-22T05:52:58;90933.41;;;14.99;94.18
3464;BME280;3551;41.578;24.706;2023-04-22T05:55:25;90931.03;;;15.30;92.60
3464;BME280;3551;41.578;24.706;2023-04-22T05:57:53;90934.47;;;15.17;90.23
3464;BME280;3551;41.578;24.706;2023-04-22T06:00:19;90932.16;;;15.32;90.14
3464;BME280;3551;41.578;24.706;2023-04-22T06:02:46;90928.63;;;14.74;90.62
3464;BME280;3551;41.578;24.706;2023-04-22T06:05:13;90929.88;;;15.02;88.90
3464;BME280;3551;41.578;24.706;2023-04-22T06:07:40;90927.97;;;14.70;89.62
3464;BME280;3551;41.578;24.706;2023-04-22T06:10:07;90927.81;;;14.45;90.24
3464;BME280;3551;41.578;24.706;2023-04-22T06:12:34;90928.09;;;15.11;88.28
3464;BME280;3551;41.578;24.706;2023-04-22T06:15:03;90936.34;;;15.33;61.10
3464;BME280;3551;41.578;24.706;2023-04-22T06:17:30;90939.19;;;15.13;61.46
3464;BME280;3551;41.578;24.706;2023-04-22T06:19:56;90941.59;;;15.24;64.35
3464;BME280;3551;41.578;24.706;2023-04-22T06:22:23;90942.00;;;14.94;67.12
3464;BME280;3551;41.578;24.706;2023-04-22T06:24:59;90939.00;;;15.49;63.76
3464;BME280;3551;41.578;24.706;2023-04-22T06:27:31;90940.34;;;15.41;63.40
3464;BME280;3551;41.578;24.706;2023-04-22T06:29:58;90939.63;;;15.41;64.36
3464;BME280;3551;41.578;24.706;2023-04-22T06:32:26;90936.47;;;14.85;65.95
3464;BME280;3551;41.578;24.706;2023-04-22T06:34:53;90934.16;;;14.02;67.89
3464;BME280;3551;41.578;24.706;2023-04-22T06:37:20;90936.72;;;13.74;69.57
3464;BME280;3551;41.578;24.706;2023-04-22T06:39:46;90938.94;;;13.95;69.25
3464;BME280;3551;41.578;24.706;2023-04-22T06:42:13;90934.66;;;13.97;70.47
3464;BME280;3551;41.578;24.706;2023-04-22T06:44:40;90934.94;;;14.19;70.08
3464;BME280;3551;41.578;24.706;2023-04-22T06:47:06;90941.38;;;14.74;67.63
3464;BME280;3551;41.578;24.706;2023-04-22T06:49:34;90943.47;;;15.11;65.21
3464;BME280;3551;41.578;24.706;2023-04-22T06:52:03;90944.56;;;15.13;64.25
3464;BME280;3551;41.578;24.706;2023-04-22T06:54:30;90938.88;;;14.95;63.87
3464;BME280;3551;41.578;24.706;2023-04-22T06:56:56;90945.50;;;15.64;62.76
3464;BME280;3551;41.578;24.706;2023-04-22T06:59:23;90942.50;;;15.62;62.51
3464;BME280;3551;41.578;24.706;2023-04-22T07:01:50;90943.63;;;16.03;62.17
3464;BME280;3551;41.578;24.706;2023-04-22T07:04:16;90947.75;;;16.32;60.30
3464;BME280;3551;41.578;24.706;2023-04-22T07:06:44;90946.97;;;15.82;58.49
3464;BME280;3551;41.578;24.706;2023-04-22T07:09:11;90952.16;;;15.02;60.15
3464;BME280;3551;41.578;24.706;2023-04-22T07:11:38;90949.34;;;14.61;63.27
3464;BME280;3551;41.578;24.706;2023-04-22T07:14:05;90952.38;;;14.47;65.56
3464;BME280;3551;41.578;24.706;2023-04-22T07:16:37;90949.13;;;14.03;66.97
3464;BME280;3551;41.578;24.706;2023-04-22T07:19:04;90950.44;;;13.95;71.06
3464;BME280;3551;41.578;24.706;2023-04-22T07:21:31;90953.94;;;14.12;69.49
3464;BME280;3551;41.578;24.706;2023-04-22T07:23:59;90956.06;;;14.37;68.47
3464;BME280;3551;41.578;24.706;2023-04-22T07:26:26;90957.56;;;15.02;66.86
3464;BME280;3551;41.578;24.706;2023-04-22T07:28:52;90952.97;;;15.44;64.27
3464;BME280;3551;41.578;24.706;2023-04-22T07:31:19;90952.34;;;15.82;59.59
3464;BME280;3551;41.578;24.706;2023-04-22T07:33:46;90959.47;;;15.75;61.24
3464;BME280;3551;41.578;24.706;2023-04-22T07:36:13;90954.56;;;15.70;61.48
3464;BME280;3551;41.578;24.706;2023-04-22T07:38:39;90954.25;;;15.68;61.60
3464;BME280;3551;41.578;24.706;2023-04-22T07:41:07;90960.09;;;15.67;62.35
3464;BME280;3551;41.578;24.706;2023-04-22T07:43:34;90951.66;;;15.65;63.39
3464;BME280;3551;41.578;24.706;2023-04-22T07:46:01;90961.28;;;15.21;64.18
3464;BME280;3551;41.578;24.706;2023-04-22T07:48:28;90959.38;;;14.44;65.11
3464;BME280;3551;41.578;24.706;2023-04-22T07:50:54;90956.81;;;14.70;65.90
3464;BME280;3551;41.578;24.706;2023-04-22T07:53:21;90959.91;;;15.00;64.76
3464;BME280;3551;41.578;24.706;2023-04-22T07:55:48;90960.72;;;15.13;63.83
3464;BME280;3551;41.578;24.706;2023-04-22T07:58:16;90951.47;;;15.14;64.62
3464;BME280;3551;41.578;24.706;2023-04-22T08:00:42;90957.50;;;14.57;65.35
3464;BME280;3551;41.578;24.706;2023-04-22T08:03:09;90957.00;;;14.46;65.97
3464;BME280;3551;41.578;24.706;2023-04-22T08:05:36;90954.69;;;14.29;65.51
3464;BME280;3551;41.578;24.706;2023-04-22T08:08:03;90952.91;;;14.06;67.32
3464;BME280;3551;41.578;24.706;2023-04-22T08:10:30;90958.78;;;13.65;68.49
3464;BME280;3551;41.578;24.706;2023-04-22T08:12:57;90962.31;;;13.42;70.00
3464;BME280;3551;41.578;24.706;2023-04-22T08:15:25;90965.16;;;13.51;70.01
3464;BME280;3551;41.578;24.706;2023-04-22T08:17:52;90960.81;;;13.58;71.52
3464;BME280;3551;41.578;24.706;2023-04-22T08:20:18;90965.50;;;13.34;72.87
3464;BME280;3551;41.578;24.706;2023-04-22T08:22:45;90961.72;;;13.31;74.34
3464;BME280;3551;41.578;24.706;2023-04-22T08:25:14;90968.69;;;13.09;76.53
3464;BME280;3551;41.578;24.706;2023-04-22T08:27:40;90979.41;;;13.09;75.42
3464;BME280;3551;41.578;24.706;2023-04-22T08:30:07;90967.38;;;13.17;77.69
3464;BME280;3551;41.578;24.706;2023-04-22T08:32:36;90965.19;;;13.32;76.31
3464;BME280;3551;41.578;24.706;2023-04-22T08:35:02;90978.41;;;13.42;77.76
3464;BME280;3551;41.578;24.706;2023-04-22T08:37:29;90973.22;;;13.32;75.44
3464;BME280;3551;41.578;24.706;2023-04-22T08:39:56;90980.28;;;12.79;76.63
3464;BME280;3551;41.578;24.706;2023-04-22T08:42:22;90986.75;;;12.59;73.85
3464;BME280;3551;41.578;24.706;2023-04-22T08:44:49;90984.09;;;12.32;74.59
3464;BME280;3551;41.578;24.706;2023-04-22T08:47:16;90975.97;;;12.39;75.24
3464;BME280;3551;41.578;24.706;2023-04-22T08:49:46;90980.06;;;12.70;78.21
3464;BME280;3551;41.578;24.706;2023-04-22T08:52:13;90986.81;;;13.02;80.96
3464;BME280;3551;41.578;24.706;2023-04-22T08:54:39;90992.09;;;13.05;84.05
3464;BME280;3551;41.578;24.706;2023-04-22T08:57:06;91001.28;;;13.08;83.05
3464;BME280;3551;41.578;24.706;2023-04-22T08:59:35;90990.66;;;13.01;83.33
3464;BME280;3551;41.578;24.706;2023-04-22T09:02:02;90991.97;;;13.16;81.60
3464;BME280;3551;41.578;24.706;2023-04-22T09:04:30;90994.56;;;12.96;81.56
3464;BME280;3551;41.578;24.706;2023-04-22T09:06:58;90992.50;;;12.84;82.36
3464;BME280;3551;41.578;24.706;2023-04-22T09:09:25;90991.69;;;12.87;83.55
3464;BME280;3551;41.578;24.706;2023-04-22T09:11:52;90990.00;;;12.93;83.86
3464;BME280;3551;41.578;24.706;2023-04-22T09:14:19;90988.31;;;13.03;83.03
3464;BME280;3551;41.578;24.706;2023-04-22T09:16:47;90984.06;;;12.82;84.79
3464;BME280;3551;41.578;24.706;2023-04-22T09:19:14;90982.91;;;12.83;83.47
3464;BME280;3551;41.578;24.706;2023-04-22T09:21:43;90985.38;;;12.74;84.80
3464;BME280;3551;41.578;24.706;2023-04-22T09:24:11;90992.06;;;13.09;82.01
3464;BME280;3551;41.578;24.706;2023-04-22T09:26:38;90993.19;;;13.11;81.99
3464;BME280;3551;41.578;24.706;2023-04-22T09:29:05;90989.69;;;13.34;79.30
3464;BME280;3551;41.578;24.706;2023-04-22T09:31:33;90997.50;;;13.48;77.28
3464;BME280;3551;41.578;24.706;2023-04-22T09:34:02;90993.34;;;13.43;79.90
3464;BME280;3551;41.578;24.706;2023-04-22T09:36:29;90998.88;;;13.36;79.87
3464;BME280;3551;41.578;24.706;2023-04-22T09:38:59;91002.63;;;13.19;80.51
3464;BME280;3551;41.578;24.706;2023-04-22T09:41:27;90996.53;;;13.38;79.16
3464;BME280;3551;41.578;24.706;2023-04-22T09:43:54;90996.53;;;13.38;78.81
3464;BME280;3551;41.578;24.706;2023-04-22T09:46:22;91000.31;;;13.41;77.78
3464;BME280;3551;41.578;24.706;2023-04-22T09:48:49;90998.22;;;13.09;79.79
3464;BME280;3551;41.578;24.706;2023-04-22T09:51:17;91008.41;;;13.18;78.33
3464;BME280;3551;41.578;24.706;2023-04-22T09:53:44;91003.31;;;13.23;79.41
3464;BME280;3551;41.578;24.706;2023-04-22T09:56:23;91000.56;;;13.27;78.88
3464;BME280;3551;41.578;24.706;2023-04-22T09:59:06;91005.75;;;13.37;79.08
3464;BME280;3551;41.578;24.706;2023-04-22T10:01:36;91007.88;;;13.03;80.18
3464;BME280;3551;41.578;24.706;2023-04-22T10:04:05;91011.84;;;13.18;80.17
3464;BME280;3551;41.578;24.706;2023-04-22T10:06:31;91011.03;;;13.21;79.07
3464;BME280;3551;41.578;24.706;2023-04-22T10:08:58;91012.94;;;12.97;77.94
3464;BME280;3551;41.578;24.706;2023-04-22T10:11:25;91007.38;;;13.12;75.45
3464;BME280;3551;41.578;24.706;2023-04-22T10:13:52;91010.75;;;12.92;77.42
3464;BME280;3551;41.578;24.706;2023-04-22T10:16:20;91014.16;;;12.70;79.39
3464;BME280;3551;41.578;24.706;2023-04-22T10:18:49;91014.59;;;12.68;78.88
3464;BME280;3551;41.578;24.706;2023-04-22T10:21:17;91016.94;;;12.66;79.83
3464;BME280;3551;41.578;24.706;2023-04-22T10:23:44;91013.34;;;12.50;78.48
3464;BME280;3551;41.578;24.706;2023-04-22T10:26:11;91011.28;;;12.34;79.25
3464;BME280;3551;41.578;24.706;2023-04-22T10:28:40;91020.19;;;12.27;80.15
3464;BME280;3551;41.578;24.706;2023-04-22T10:31:18;91010.41;;;12.40;79.14
3464;BME280;3551;41.578;24.706;2023-04-22T10:33:46;91014.91;;;12.47;78.34
3464;BME280;3551;41.578;24.706;2023-04-22T10:36:14;91017.72;;;12.40;79.95
3464;BME280;3551;41.578;24.706;2023-04-22T10:41:23;91025.59;;;12.24;82.92
3464;BME280;3551;41.578;24.706;2023-04-22T10:43:54;91024.03;;;12.26;81.67
3464;BME280;3551;41.578;24.706;2023-04-22T10:46:54;91028.28;;;12.24;82.39
3464;BME280;3551;41.578;24.706;2023-04-22T10:49:24;91015.09;;;12.10;84.61
3464;BME280;3551;41.578;24.706;2023-04-22T10:51:51;91019.13;;;12.21;85.42
3464;BME280;3551;41.578;24.706;2023-04-22T10:57:09;91010.72;;;12.46;87.79
3464;BME280;3551;41.578;24.706;2023-04-22T10:59:40;91013.34;;;12.50;85.96
3464;BME280;3551;41.578;24.706;2023-04-22T11:02:07;91006.13;;;12.70;85.04
3464;BME280;3551;41.578;24.706;2023-04-22T11:04:35;91010.75;;;12.69;85.33
3464;BME280;3551;41.578;24.706;2023-04-22T11:07:13;91002.16;;;13.01;82.15
3464;BME280;3551;41.578;24.706;2023-04-22T11:09:41;91004.97;;;13.17;80.08
3464;BME280;3551;41.578;24.706;2023-04-22T11:14:53;91008.22;;;13.05;82.96
3464;BME280;3551;41.578;24.706;2023-04-22T11:17:20;91010.06;;;13.12;83.06
3464;BME280;3551;41.578;24.706;2023-04-22T11:19:48;91005.25;;;13.23;82.85
3464;BME280;3551;41.578;24.706;2023-04-22T11:22:20;91008.34;;;13.21;81.74
3464;BME280;3551;41.578;24.706;2023-04-22T11:24:52;91012.41;;;13.10;82.96
3464;BME280;3551;41.578;24.706;2023-04-22T11:27:18;91010.56;;;13.26;80.84
3464;BME280;3551;41.578;24.706;2023-04-22T11:29:59;91010.09;;;13.08;82.01
3464;BME280;3551;41.578;24.706;2023-04-22T11:32:26;91015.47;;;13.08;81.57
3464;BME280;3551;41.578;24.706;2023-04-22T11:34:54;91011.38;;;13.00;80.87
3464;BME280;3551;41.578;24.706;2023-04-22T11:37:21;91011.38;;;13.23;80.02
3464;BME280;3551;41.578;24.706;2023-04-22T11:39:48;91012.31;;;12.90;80.04
3464;BME280;3551;41.578;24.706;2023-04-22T11:42:19;91005.44;;;12.89;81.49
3464;BME280;3551;41.578;24.706;2023-04-22T11:44:45;91000.91;;;13.06;78.87
3464;BME280;3551;41.578;24.706;2023-04-22T11:47:12;90999.31;;;13.12;78.61
3464;BME280;3551;41.578;24.706;2023-04-22T11:49:39;90997.84;;;12.84;81.35
3464;BME280;3551;41.578;24.706;2023-04-22T11:52:07;90992.06;;;13.09;75.28
3464;BME280;3551;41.578;24.706;2023-04-22T11:54:34;90980.56;;;12.85;76.26
3464;BME280;3551;41.578;24.706;2023-04-22T11:57:02;90978.13;;;12.71;76.47
3464;BME280;3551;41.578;24.706;2023-04-22T11:59:28;90974.59;;;12.77;75.76
3464;BME280;3551;41.578;24.706;2023-04-22T12:01:55;90984.75;;;12.66;76.33
3464;BME280;3551;41.578;24.706;2023-04-22T12:04:22;90976.44;;;12.57;77.06
3464;BME280;3551;41.578;24.706;2023-04-22T12:06:50;90991.53;;;12.71;76.14
3464;BME280;3551;41.578;24.706;2023-04-22T12:09:18;90983.91;;;12.69;74.52
3464;BME280;3551;41.578;24.706;2023-04-22T12:11:45;90988.31;;;12.06;76.28
3464;BME280;3551;41.578;24.706;2023-04-22T12:14:11;90987.41;;;11.90;78.49
3464;BME280;3551;41.578;24.706;2023-04-22T12:16:38;90982.56;;;11.81;79.95
3464;BME280;3551;41.578;24.706;2023-04-22T12:19:05;90984.38;;;11.88;78.12
3464;BME280;3551;41.578;24.706;2023-04-22T12:21:32;90983.16;;;11.92;78.05
3464;BME280;3551;41.578;24.706;2023-04-22T12:23:59;90971.72;;;11.88;78.88
3464;BME280;3551;41.578;24.706;2023-04-22T12:26:29;90981.69;;;12.14;78.64
3464;BME280;3551;41.578;24.706;2023-04-22T12:28:57;90975.94;;;11.89;78.10
3464;BME280;3551;41.578;24.706;2023-04-22T12:31:24;90978.03;;;11.74;78.01
3464;BME280;3551;41.578;24.706;2023-04-22T12:33:52;90973.38;;;11.82;75.67
3464;BME280;3551;41.578;24.706;2023-04-22T12:36:20;90978.03;;;12.05;76.82
3464;BME280;3551;41.578;24.706;2023-04-22T12:38:47;90970.47;;;12.23;76.29
3464;BME280;3551;41.578;24.706;2023-04-22T12:41:15;90976.28;;;12.18;76.09
3464;BME280;3551;41.578;24.706;2023-04-22T12:43:43;90973.00;;;11.80;75.75
3464;BME280;3551;41.578;24.706;2023-04-22T12:46:09;90975.13;;;11.92;77.66
3464;BME280;3551;41.578;24.706;2023-04-22T12:48:36;90981.63;;;11.91;76.67
3464;BME280;3551;41.578;24.706;2023-04-22T12:51:03;90978.97;;;11.91;77.01
3464;BME280;3551;41.578;24.706;2023-04-22T12:53:30;90984.31;;;12.18;77.24
3464;BME280;3551;41.578;24.706;2023-04-22T12:55:56;90987.16;;;12.34;75.49
3464;BME280;3551;41.578;24.706;2023-04-22T12:58:23;90988.84;;;12.48;76.62
3464;BME280;3551;41.578;24.706;2023-04-22T13:00:51;90986.09;;;12.28;76.37
3464;BME280;3551;41.578;24.706;2023-04-22T13:03:18;90988.63;;;12.38;76.15
3464;BME280;3551;41.578;24.706;2023-04-22T13:05:45;90991.72;;;12.37;77.88
3464;BME280;3551;41.578;24.706;2023-04-22T13:08:11;90990.50;;;12.15;76.85
3464;BME280;3551;41.578;24.706;2023-04-22T13:10:38;90988.13;;;12.20;77.38
3464;BME280;3551;41.578;24.706;2023-04-22T13:13:05;90985.28;;;12.04;77.99
3464;BME280;3551;41.578;24.706;2023-04-22T13:15:33;90985.13;;;11.24;80.95
3464;BME280;3551;41.578;24.706;2023-04-22T13:18:01;90988.94;;;10.89;84.35
3464;BME280;3551;41.578;24.706;2023-04-22T13:20:27;90997.44;;;10.81;88.07